createdAt,value
2022-07-29T00:02:28.273Z,21.60
2022-07-29T00:04:55.220Z,21.60
2022-07-29T00:07:22.074Z,21.50
2022-07-29T00:09:51.696Z,21.60
2022-07-29T00:12:25.456Z,21.60
2022-07-29T00:14:56.172Z,21.60
2022-07-29T00:17:26.964Z,21.60
2022-07-29T00:19:53.900Z,21.60
2022-07-29T00:22:21.589Z,21.60
2022-07-29T00:24:50.197Z,21.60
2022-07-29T00:27:17.886Z,21.60
2022-07-29T00:29:44.737Z,21.50
2022-07-29T00:32:11.599Z,21.40
2022-07-29T00:34:57.093Z,21.40
2022-07-29T00:37:23.927Z,21.40
2022-07-29T00:39:51.375Z,21.30
2022-07-29T00:42:18.432Z,21.40
2022-07-29T00:44:45.442Z,21.30
2022-07-29T00:47:12.836Z,21.20
2022-07-29T00:49:41.431Z,21.20
2022-07-29T00:52:10.151Z,21.10
2022-07-29T00:54:44.011Z,21.10
2022-07-29T00:57:12.042Z,21.00
2022-07-29T00:59:38.832Z,21.00
2022-07-29T01:02:05.906Z,21.00
2022-07-29T01:04:33.603Z,20.90
2022-07-29T01:07:03.169Z,20.90
2022-07-29T01:09:42.964Z,20.90
2022-07-29T01:12:22.702Z,20.90
2022-07-29T01:14:50.768Z,20.90
2022-07-29T01:17:29.775Z,20.90
2022-07-29T01:20:00.186Z,20.90
2022-07-29T01:22:38.293Z,20.90
2022-07-29T01:25:27.133Z,20.80
2022-07-29T01:28:16.246Z,20.80
2022-07-29T01:30:47.087Z,20.70
2022-07-29T01:33:38.330Z,20.70
2022-07-29T01:36:13.045Z,20.70
2022-07-29T01:38:42.433Z,20.60
2022-07-29T01:41:18.725Z,20.60
2022-07-29T01:43:58.181Z,20.60
2022-07-29T01:46:41.975Z,20.60
2022-07-29T01:49:17.683Z,20.50
2022-07-29T01:51:58.202Z,20.40
2022-07-29T01:54:31.886Z,20.40
2022-07-29T01:57:01.008Z,20.40
2022-07-29T01:59:29.212Z,20.40
2022-07-29T02:02:00.252Z,20.40
2022-07-29T02:04:30.466Z,20.30
2022-07-29T02:07:02.658Z,20.30
2022-07-29T02:09:31.615Z,20.30
2022-07-29T02:11:59.977Z,20.30
2022-07-29T02:14:32.901Z,20.30
2022-07-29T02:17:01.647Z,20.30
2022-07-29T02:19:30.471Z,20.20
2022-07-29T02:21:59.416Z,20.20
2022-07-29T02:24:26.985Z,20.20
2022-07-29T02:27:00.186Z,20.10
2022-07-29T02:29:30.728Z,20.20
2022-07-29T02:32:00.370Z,20.10
2022-07-29T02:34:29.221Z,20.00
2022-07-29T02:36:57.013Z,20.00
2022-07-29T02:39:26.809Z,20.00
2022-07-29T02:42:00.249Z,19.90
2022-07-29T02:44:32.641Z,19.80
2022-07-29T02:47:21.887Z,19.80
2022-07-29T02:50:09.408Z,19.70
2022-07-29T02:52:40.959Z,19.70
2022-07-29T02:55:34.370Z,19.50
2022-07-29T02:58:02.886Z,19.50
2022-07-29T03:00:32.541Z,19.50
2022-07-29T03:03:04.600Z,19.50
2022-07-29T03:05:32.490Z,19.60
2022-07-29T03:08:03.866Z,19.60
2022-07-29T03:10:32.144Z,19.60
2022-07-29T03:12:59.704Z,19.60
2022-07-29T03:15:27.241Z,19.70
2022-07-29T03:17:54.911Z,19.70
2022-07-29T03:20:22.835Z,19.70
2022-07-29T03:22:49.953Z,19.70
2022-07-29T03:25:19.271Z,19.70
2022-07-29T03:27:47.457Z,19.70
2022-07-29T03:30:18.126Z,19.60
2022-07-29T03:32:45.538Z,19.60
2022-07-29T03:35:12.681Z,19.50
2022-07-29T03:37:39.522Z,19.40
2022-07-29T03:40:09.767Z,19.60
2022-07-29T03:42:40.807Z,19.50
2022-07-29T03:45:12.068Z,19.50
2022-07-29T03:47:51.121Z,19.50
2022-07-29T03:50:21.906Z,19.40
2022-07-29T03:52:49.180Z,19.40
2022-07-29T03:55:16.952Z,19.50
2022-07-29T03:57:45.840Z,19.60
2022-07-29T04:00:13.698Z,19.60
2022-07-29T04:02:41.317Z,19.60
2022-07-29T04:05:13.803Z,19.50
2022-07-29T04:07:41.451Z,19.40
2022-07-29T04:10:09.475Z,19.30
2022-07-29T04:12:36.399Z,19.30
2022-07-29T04:15:05.157Z,19.20
2022-07-29T04:17:32.139Z,19.20
2022-07-29T04:19:59.000Z,19.30
2022-07-29T04:22:29.219Z,19.30
2022-07-29T04:25:00.257Z,19.20
2022-07-29T04:27:30.152Z,19.20
2022-07-29T04:29:57.622Z,19.30
2022-07-29T04:32:25.419Z,19.30
2022-07-29T04:34:52.516Z,19.30
2022-07-29T04:37:19.677Z,19.40
2022-07-29T04:39:46.468Z,19.40
2022-07-29T04:42:13.414Z,19.30
2022-07-29T04:44:42.952Z,19.30
2022-07-29T04:47:10.340Z,19.30
2022-07-29T04:49:39.693Z,19.30
2022-07-29T04:52:07.701Z,19.30
2022-07-29T04:54:34.607Z,19.30
2022-07-29T04:57:01.498Z,19.30
2022-07-29T04:59:28.295Z,19.40
2022-07-29T05:01:55.227Z,19.50
2022-07-29T05:04:22.356Z,19.40
2022-07-29T05:06:49.584Z,19.50
2022-07-29T05:09:16.600Z,19.60
2022-07-29T05:11:43.597Z,19.70
2022-07-29T05:14:10.583Z,19.80
2022-07-29T05:16:37.555Z,19.90
2022-07-29T05:19:04.495Z,20.00
2022-07-29T05:21:31.328Z,20.20
2022-07-29T05:23:58.202Z,20.20
2022-07-29T05:26:25.078Z,20.30
2022-07-29T05:28:51.952Z,20.50
2022-07-29T05:31:18.917Z,20.50
2022-07-29T05:33:46.154Z,20.40
2022-07-29T05:36:13.018Z,20.40
2022-07-29T05:38:39.902Z,20.60
2022-07-29T05:41:06.922Z,20.90
2022-07-29T05:43:34.071Z,22.70
2022-07-29T05:46:00.987Z,22.70
2022-07-29T05:48:28.442Z,22.80
2022-07-29T05:50:55.761Z,23.40
2022-07-29T05:53:22.908Z,22.90
2022-07-29T05:55:50.771Z,23.40
2022-07-29T05:58:17.845Z,23.50
2022-07-29T06:00:44.910Z,23.30
2022-07-29T06:03:11.854Z,23.00
2022-07-29T06:05:38.689Z,22.70
2022-07-29T06:08:08.156Z,22.70
2022-07-29T06:10:38.635Z,22.70
2022-07-29T06:13:05.656Z,22.50
2022-07-29T06:15:32.826Z,22.80
2022-07-29T06:18:01.507Z,25.00
2022-07-29T06:20:32.646Z,26.40
2022-07-29T06:23:00.384Z,27.00
2022-07-29T06:25:30.313Z,27.30
2022-07-29T06:27:57.788Z,27.90
2022-07-29T06:30:25.052Z,27.80
2022-07-29T06:32:51.997Z,28.50
2022-07-29T06:35:39.437Z,29.10
2022-07-29T06:38:25.662Z,29.50
2022-07-29T06:41:02.059Z,29.70
2022-07-29T06:43:34.580Z,28.00
2022-07-29T06:46:03.555Z,28.90
2022-07-29T06:48:30.587Z,30.10
2022-07-29T06:50:57.549Z,30.50
2022-07-29T06:53:24.798Z,31.20
2022-07-29T06:55:51.685Z,31.60
2022-07-29T06:58:21.231Z,32.30
2022-07-29T07:00:49.159Z,32.60
2022-07-29T07:03:17.391Z,33.10
2022-07-29T07:05:45.172Z,33.10
2022-07-29T07:08:13.081Z,32.80
2022-07-29T07:10:40.151Z,33.50
2022-07-29T07:13:07.481Z,34.00
2022-07-29T07:15:38.958Z,33.70
2022-07-29T07:18:07.532Z,31.90
2022-07-29T07:20:35.323Z,32.40
2022-07-29T07:23:02.271Z,33.70
2022-07-29T07:25:29.704Z,34.40
2022-07-29T07:27:56.542Z,34.50
2022-07-29T07:30:23.608Z,33.90
2022-07-29T07:32:50.610Z,33.10
2022-07-29T07:35:17.422Z,32.00
2022-07-29T07:37:44.348Z,31.90
2022-07-29T07:40:12.829Z,32.20
2022-07-29T07:42:45.673Z,32.50
2022-07-29T07:45:15.820Z,31.70
2022-07-29T07:47:43.403Z,30.50
2022-07-29T07:50:18.473Z,30.50
2022-07-29T07:52:54.184Z,31.60
2022-07-29T07:55:21.154Z,33.40
2022-07-29T07:57:48.183Z,32.90
2022-07-29T08:00:16.462Z,32.30
2022-07-29T08:02:46.623Z,30.60
2022-07-29T08:05:17.932Z,30.90
2022-07-29T08:07:46.836Z,32.10
2022-07-29T08:10:15.999Z,32.90
2022-07-29T08:12:44.678Z,34.20
2022-07-29T08:15:11.507Z,34.50
2022-07-29T08:17:38.350Z,34.20
2022-07-29T08:20:05.702Z,34.90
2022-07-29T08:22:32.585Z,35.40
2022-07-29T08:24:59.447Z,35.70
2022-07-29T08:27:43.070Z,35.90
2022-07-29T08:30:11.302Z,36.20
2022-07-29T08:32:55.235Z,37.10
2022-07-29T08:35:24.264Z,37.20
2022-07-29T08:37:52.288Z,36.30
2022-07-29T08:40:21.441Z,34.90
2022-07-29T08:42:59.004Z,35.60
2022-07-29T08:45:26.992Z,36.40
2022-07-29T08:47:53.868Z,35.10
2022-07-29T08:50:20.817Z,34.00
2022-07-29T08:52:50.010Z,33.40
2022-07-29T08:55:21.286Z,34.30
2022-07-29T08:57:54.132Z,34.80
2022-07-29T09:00:25.642Z,34.60
2022-07-29T09:03:00.183Z,34.90
2022-07-29T09:05:28.392Z,34.90
2022-07-29T09:07:55.660Z,35.10
2022-07-29T09:10:22.794Z,35.90
2022-07-29T09:12:49.924Z,35.70
2022-07-29T09:15:16.834Z,35.70
2022-07-29T09:17:53.655Z,36.20
2022-07-29T09:20:23.251Z,37.20
2022-07-29T09:22:51.813Z,37.60
2022-07-29T09:25:34.980Z,36.80
2022-07-29T09:28:13.615Z,37.10
2022-07-29T09:30:59.324Z,37.00
2022-07-29T09:33:35.402Z,35.90
2022-07-29T09:36:07.246Z,34.70
2022-07-29T09:38:36.200Z,35.50
2022-07-29T09:41:06.741Z,36.00
2022-07-29T09:43:34.331Z,35.90
2022-07-29T09:46:19.078Z,35.00
2022-07-29T09:48:46.068Z,34.80
2022-07-29T09:51:23.009Z,35.70
2022-07-29T09:53:53.656Z,36.50
2022-07-29T09:56:20.621Z,36.80
2022-07-29T09:58:47.452Z,36.70
2022-07-29T10:01:15.118Z,36.50
2022-07-29T10:03:54.501Z,35.00
2022-07-29T10:06:21.388Z,35.60
2022-07-29T10:08:48.327Z,35.40
2022-07-29T10:11:17.999Z,35.10
2022-07-29T10:13:47.337Z,35.30
2022-07-29T10:16:15.411Z,35.30
2022-07-29T10:18:44.564Z,35.50
2022-07-29T10:21:22.382Z,34.60
2022-07-29T10:24:00.971Z,34.30
2022-07-29T10:26:29.247Z,34.20
2022-07-29T10:28:56.863Z,33.80
2022-07-29T10:31:38.410Z,34.20
2022-07-29T10:34:23.760Z,33.00
2022-07-29T10:37:19.541Z,34.10
2022-07-29T10:40:30.608Z,32.80
2022-07-29T10:43:05.819Z,31.40
2022-07-29T10:45:32.722Z,31.40
2022-07-29T10:48:08.042Z,31.90
2022-07-29T10:50:54.282Z,31.60
2022-07-29T10:53:24.393Z,31.10
2022-07-29T10:55:54.697Z,32.00
2022-07-29T10:58:24.608Z,32.50
2022-07-29T11:00:54.131Z,32.10
2022-07-29T11:03:50.397Z,31.60
2022-07-29T11:06:26.615Z,31.30
2022-07-29T11:09:34.800Z,32.10
2022-07-29T11:12:05.350Z,31.80
2022-07-29T11:15:01.173Z,32.00
2022-07-29T11:17:28.095Z,31.80
2022-07-29T11:20:32.638Z,31.90
2022-07-29T11:22:59.992Z,31.90
2022-07-29T11:28:23.237Z,30.40
2022-07-29T11:30:54.413Z,29.90
2022-07-29T11:36:27.994Z,30.60
2022-07-29T11:39:36.379Z,31.30
2022-07-29T11:42:32.313Z,30.50
2022-07-29T11:45:43.639Z,30.10
2022-07-29T11:48:27.792Z,30.30
2022-07-29T11:50:53.721Z,30.90
2022-07-29T11:53:21.204Z,30.80
2022-07-29T11:55:56.381Z,31.50
2022-07-29T11:58:26.066Z,31.90
2022-07-29T12:00:55.531Z,31.80
2022-07-29T12:03:33.545Z,33.30
2022-07-29T12:06:02.545Z,34.40
2022-07-29T12:08:30.488Z,33.10
2022-07-29T12:10:57.381Z,31.50
2022-07-29T12:13:37.841Z,31.30
2022-07-29T12:16:05.441Z,31.90
2022-07-29T12:18:32.644Z,32.80
2022-07-29T12:21:04.919Z,32.50
2022-07-29T12:23:35.520Z,32.60
2022-07-29T12:26:07.197Z,32.10
2022-07-29T12:28:39.280Z,32.70
2022-07-29T12:31:06.441Z,32.60
2022-07-29T12:33:36.102Z,32.60
2022-07-29T12:36:10.357Z,31.10
2022-07-29T12:38:41.704Z,30.90
2022-07-29T12:41:09.505Z,31.40
2022-07-29T12:43:36.339Z,31.90
2022-07-29T12:46:16.379Z,31.90
2022-07-29T12:48:44.643Z,31.50
2022-07-29T12:51:13.337Z,31.40
2022-07-29T12:53:40.664Z,31.50
2022-07-29T12:56:41.262Z,31.60
2022-07-29T12:59:21.842Z,31.70
2022-07-29T13:01:51.779Z,31.40
2022-07-29T13:04:32.704Z,31.30
2022-07-29T13:07:06.688Z,31.50
2022-07-29T13:09:43.219Z,31.30
2022-07-29T13:12:12.156Z,31.40
2022-07-29T13:14:42.314Z,31.70
2022-07-29T13:17:13.081Z,31.30
2022-07-29T13:19:48.441Z,31.40
2022-07-29T13:22:25.061Z,31.70
2022-07-29T13:24:56.973Z,31.80
2022-07-29T13:27:26.139Z,31.50
2022-07-29T13:29:53.915Z,31.00
2022-07-29T13:32:27.934Z,31.60
2022-07-29T13:34:57.283Z,31.80
2022-07-29T13:37:24.594Z,32.00
2022-07-29T13:39:53.017Z,32.00
2022-07-29T13:42:20.487Z,31.70
2022-07-29T13:44:47.315Z,31.50
2022-07-29T13:47:14.108Z,31.50
2022-07-29T13:49:40.912Z,31.70
2022-07-29T13:52:08.414Z,31.70
2022-07-29T13:54:41.930Z,31.70
2022-07-29T13:57:11.716Z,31.60
2022-07-29T13:59:43.176Z,32.00
2022-07-29T14:02:11.747Z,31.20
2022-07-29T14:04:42.607Z,31.10
2022-07-29T14:07:09.677Z,30.90
2022-07-29T14:09:41.341Z,30.90
2022-07-29T14:12:09.231Z,30.90
2022-07-29T14:14:40.172Z,30.80
2022-07-29T14:17:07.744Z,30.80
2022-07-29T14:19:42.445Z,30.60
2022-07-29T14:22:10.676Z,30.50
2022-07-29T14:24:37.991Z,30.40
2022-07-29T14:27:09.221Z,30.00
2022-07-29T14:29:38.332Z,30.10
2022-07-29T14:32:11.187Z,29.90
2022-07-29T14:34:39.016Z,29.70
2022-07-29T14:37:06.708Z,29.30
2022-07-29T14:39:42.123Z,29.40
2022-07-29T14:42:12.343Z,29.20
2022-07-29T14:44:40.500Z,29.50
2022-07-29T14:47:08.348Z,29.60
2022-07-29T14:49:36.099Z,29.40
2022-07-29T14:52:03.137Z,29.20
2022-07-29T14:54:29.984Z,29.40
2022-07-29T14:56:58.270Z,29.40
2022-07-29T14:59:26.110Z,29.60
2022-07-29T15:01:53.283Z,29.80
2022-07-29T15:04:23.190Z,29.90
2022-07-29T15:06:50.021Z,30.10
2022-07-29T15:09:16.924Z,30.00
2022-07-29T15:11:43.760Z,30.00
2022-07-29T15:14:10.910Z,29.60
2022-07-29T15:16:43.684Z,29.60
2022-07-29T15:19:13.434Z,29.60
2022-07-29T15:21:41.651Z,29.40
2022-07-29T15:24:19.121Z,29.30
2022-07-29T15:26:46.318Z,29.60
2022-07-29T15:29:13.345Z,29.50
2022-07-29T15:31:40.793Z,29.30
2022-07-29T15:34:08.332Z,29.00
2022-07-29T15:36:51.615Z,28.90
2022-07-29T15:39:20.045Z,28.90
2022-07-29T15:41:47.115Z,28.40
2022-07-29T15:44:13.975Z,28.40
2022-07-29T15:47:00.103Z,28.30
2022-07-29T15:49:48.245Z,28.10
2022-07-29T15:52:18.482Z,28.20
2022-07-29T15:54:46.130Z,28.30
2022-07-29T15:57:12.977Z,28.30
2022-07-29T15:59:39.853Z,28.10
2022-07-29T16:02:06.871Z,27.80
2022-07-29T16:04:33.780Z,27.80
2022-07-29T16:07:01.200Z,27.70
2022-07-29T16:09:28.964Z,27.60
2022-07-29T16:11:56.659Z,27.60
2022-07-29T16:14:24.044Z,27.50
2022-07-29T16:16:55.783Z,27.40
2022-07-29T16:19:23.131Z,27.20
2022-07-29T16:21:50.003Z,27.10
2022-07-29T16:24:16.846Z,27.10
2022-07-29T16:26:43.913Z,27.20
2022-07-29T16:29:10.807Z,27.20
2022-07-29T16:31:37.723Z,27.00
2022-07-29T16:34:04.637Z,27.00
2022-07-29T16:36:31.534Z,26.90
2022-07-29T16:38:58.384Z,26.90
2022-07-29T16:41:25.321Z,26.80
2022-07-29T16:43:52.176Z,26.80
2022-07-29T16:46:19.499Z,26.90
2022-07-29T16:48:48.478Z,26.80
2022-07-29T16:51:16.328Z,26.70
2022-07-29T16:53:43.185Z,26.60
2022-07-29T16:56:12.778Z,26.70
2022-07-29T16:58:43.859Z,26.70
2022-07-29T17:01:11.803Z,26.70
2022-07-29T17:04:01.329Z,26.60
2022-07-29T17:06:29.530Z,26.50
2022-07-29T17:08:56.724Z,26.40
2022-07-29T17:11:52.695Z,26.40
2022-07-29T17:14:10.585Z,26.30
2022-07-29T17:16:37.559Z,26.30
2022-07-29T17:19:04.761Z,26.30
2022-07-29T17:21:31.839Z,26.30
2022-07-29T17:23:59.408Z,26.20
2022-07-29T17:26:28.112Z,26.20
2022-07-29T17:28:55.396Z,26.10
2022-07-29T17:31:22.564Z,26.10
2022-07-29T17:33:49.480Z,26.00
2022-07-29T17:36:26.772Z,26.00
2022-07-29T17:38:59.082Z,26.00
2022-07-29T17:41:26.708Z,26.00
2022-07-29T17:43:54.655Z,26.00
2022-07-29T17:46:24.809Z,26.00
2022-07-29T17:48:51.919Z,26.00
2022-07-29T17:51:18.882Z,25.90
2022-07-29T17:53:45.841Z,25.90
2022-07-29T17:56:13.235Z,25.70
2022-07-29T17:58:40.335Z,25.40
2022-07-29T18:01:07.280Z,25.20
2022-07-29T18:03:34.178Z,25.10
2022-07-29T18:06:04.185Z,25.10
2022-07-29T18:08:31.001Z,25.00
2022-07-29T18:10:57.904Z,24.80
2022-07-29T18:13:26.402Z,24.80
2022-07-29T18:15:56.440Z,24.70
2022-07-29T18:18:25.497Z,24.60
2022-07-29T18:20:52.307Z,24.60
2022-07-29T18:23:19.179Z,24.50
2022-07-29T18:25:46.044Z,24.30
2022-07-29T18:28:12.867Z,24.30
2022-07-29T18:30:39.785Z,24.30
2022-07-29T18:33:24.294Z,24.30
2022-07-29T18:36:10.687Z,24.30
2022-07-29T18:38:39.735Z,24.20
2022-07-29T18:41:06.703Z,23.90
2022-07-29T18:43:33.630Z,23.90
2022-07-29T18:46:00.411Z,23.60
2022-07-29T18:48:27.290Z,23.40
2022-07-29T18:50:54.071Z,22.90
2022-07-29T18:53:20.914Z,22.90
2022-07-29T18:55:47.669Z,22.80
2022-07-29T18:58:14.578Z,22.70
2022-07-29T19:00:41.604Z,22.70
2022-07-29T19:03:08.785Z,22.70
2022-07-29T19:05:35.748Z,22.60
2022-07-29T19:08:02.621Z,22.60
2022-07-29T19:10:29.808Z,22.50
2022-07-29T19:12:57.799Z,22.40
2022-07-29T19:15:24.792Z,22.30
2022-07-29T19:17:51.692Z,22.20
2022-07-29T19:20:18.660Z,22.10
2022-07-29T19:22:46.109Z,22.10
2022-07-29T19:25:13.267Z,22.00
2022-07-29T19:27:41.996Z,21.90
2022-07-29T19:30:09.656Z,21.90
2022-07-29T19:32:37.143Z,21.90
2022-07-29T19:35:23.466Z,21.80
2022-07-29T19:37:55.430Z,21.70
2022-07-29T19:40:22.532Z,21.60
2022-07-29T19:42:51.527Z,21.60
2022-07-29T19:45:19.431Z,21.50
2022-07-29T19:47:47.627Z,21.50
2022-07-29T19:50:16.512Z,21.40
2022-07-29T19:52:43.965Z,21.30
2022-07-29T19:55:10.762Z,21.10
2022-07-29T19:57:41.063Z,21.10
2022-07-29T20:00:11.452Z,21.00
2022-07-29T20:02:40.248Z,21.00
2022-07-29T20:05:09.687Z,20.90
2022-07-29T20:07:37.598Z,21.00
2022-07-29T20:10:06.660Z,20.90
2022-07-29T20:12:33.464Z,20.80
2022-07-29T20:15:00.277Z,20.70
2022-07-29T20:17:28.460Z,20.60
2022-07-29T20:19:56.326Z,20.60
2022-07-29T20:22:23.305Z,20.50
2022-07-29T20:24:50.076Z,20.40
2022-07-29T20:27:17.149Z,20.40
2022-07-29T20:29:44.015Z,20.30
2022-07-29T20:32:12.449Z,20.40
2022-07-29T20:34:42.735Z,20.40
2022-07-29T20:37:14.597Z,20.30
2022-07-29T20:39:46.368Z,20.30
2022-07-29T20:42:13.380Z,20.20
2022-07-29T20:44:40.194Z,20.10
2022-07-29T20:47:07.007Z,20.00
2022-07-29T20:49:34.391Z,20.00
2022-07-29T20:52:01.184Z,19.90
2022-07-29T20:54:28.016Z,19.80
2022-07-29T20:56:54.845Z,19.80
2022-07-29T20:59:21.717Z,19.70
2022-07-29T21:01:48.615Z,19.70
2022-07-29T21:04:16.595Z,19.50
2022-07-29T21:06:43.570Z,19.40
2022-07-29T21:09:11.299Z,19.40
2022-07-29T21:11:44.612Z,19.20
2022-07-29T21:14:29.252Z,19.10
2022-07-29T21:16:56.810Z,19.20
2022-07-29T21:19:23.765Z,19.20
2022-07-29T21:21:51.094Z,19.10
2022-07-29T21:24:19.154Z,19.10
2022-07-29T21:26:54.493Z,19.10
2022-07-29T21:29:31.798Z,18.90
2022-07-29T21:31:58.639Z,19.00
2022-07-29T21:34:28.007Z,18.90
2022-07-29T21:36:54.805Z,18.90
2022-07-29T21:39:21.622Z,18.80
2022-07-29T21:41:48.742Z,18.80
2022-07-29T21:44:20.969Z,18.80
2022-07-29T21:46:48.596Z,18.80
2022-07-29T21:49:15.535Z,18.80
2022-07-29T21:51:42.416Z,18.80
2022-07-29T21:54:09.293Z,18.80
2022-07-29T21:56:36.089Z,18.70
2022-07-29T21:59:03.147Z,18.70
2022-07-29T22:01:39.550Z,18.70
2022-07-29T22:04:06.606Z,18.70
2022-07-29T22:06:34.570Z,18.70
2022-07-29T22:09:01.521Z,18.60
2022-07-29T22:11:28.611Z,18.60
2022-07-29T22:13:55.459Z,18.60
2022-07-29T22:16:22.357Z,18.60
2022-07-29T22:18:49.388Z,18.60
2022-07-29T22:21:16.319Z,18.60
2022-07-29T22:23:43.218Z,18.60
2022-07-29T22:26:10.087Z,18.50
2022-07-29T22:28:36.945Z,18.40
2022-07-29T22:31:03.992Z,18.40
2022-07-29T22:33:30.839Z,18.50
2022-07-29T22:35:57.679Z,18.50
2022-07-29T22:38:24.473Z,18.50
2022-07-29T22:40:52.359Z,18.50
2022-07-29T22:43:19.876Z,18.50
2022-07-29T22:45:46.862Z,18.50
2022-07-29T22:48:13.724Z,18.40
2022-07-29T22:50:41.761Z,18.40
2022-07-29T22:53:08.614Z,18.40
2022-07-29T22:55:35.521Z,18.40
2022-07-29T22:58:02.338Z,18.30
2022-07-29T23:00:29.259Z,18.30
2022-07-29T23:02:56.034Z,18.40
2022-07-29T23:05:22.943Z,18.40
2022-07-29T23:07:49.745Z,18.40
2022-07-29T23:10:16.789Z,18.30
2022-07-29T23:12:43.651Z,18.30
2022-07-29T23:15:10.455Z,18.30
2022-07-29T23:17:37.250Z,18.30
2022-07-29T23:20:07.063Z,18.20
2022-07-29T23:22:37.659Z,18.20
2022-07-29T23:25:06.234Z,18.20
2022-07-29T23:27:33.201Z,18.20
2022-07-29T23:30:00.012Z,18.10
2022-07-29T23:32:26.837Z,18.20
2022-07-29T23:34:53.687Z,18.20
2022-07-29T23:37:20.619Z,18.20
2022-07-29T23:39:47.415Z,18.20
2022-07-29T23:42:14.302Z,18.30
2022-07-29T23:44:41.098Z,18.20
2022-07-29T23:47:07.942Z,18.20
2022-07-29T23:49:36.561Z,18.20
2022-07-29T23:52:03.592Z,18.10
2022-07-29T23:54:30.436Z,18.20
2022-07-29T23:56:58.006Z,18.20
2022-07-29T23:59:25.411Z,18.10
